createdAt,value
2022-11-21T00:02:32.322Z,90.22
2022-11-21T00:07:37.100Z,90.49
2022-11-21T00:12:39.961Z,90.87
2022-11-21T00:17:42.971Z,90.36
2022-11-21T00:22:47.469Z,89.82
2022-11-21T00:27:50.462Z,88.98
2022-11-21T00:32:53.495Z,88.61
2022-11-21T00:37:57.802Z,88.34
2022-11-21T00:43:03.629Z,88.14
2022-11-21T00:48:07.481Z,87.70
2022-11-21T00:53:11.747Z,88.17
2022-11-21T00:58:14.700Z,87.96
2022-11-21T01:03:17.806Z,88.08
2022-11-21T01:08:22.153Z,88.23
2022-11-21T01:13:25.354Z,89.50
2022-11-21T01:18:28.439Z,88.72
2022-11-21T01:23:33.244Z,88.51
2022-11-21T01:28:36.391Z,88.10
2022-11-21T01:33:39.811Z,87.54
2022-11-21T01:38:46.015Z,87.44
2022-11-21T01:43:49.394Z,87.39
2022-11-21T01:48:56.421Z,87.47
2022-11-21T01:54:04.285Z,87.26
2022-11-21T01:59:12.608Z,87.33
2022-11-21T02:04:15.647Z,87.85
2022-11-21T02:09:21.022Z,87.37
2022-11-21T02:14:24.665Z,87.28
2022-11-21T02:19:36.691Z,87.44
2022-11-21T02:24:46.917Z,87.99
2022-11-21T02:29:51.194Z,88.05
2022-11-21T02:34:54.073Z,88.14
2022-11-21T02:40:00.063Z,88.35
2022-11-21T02:45:11.727Z,88.21
2022-11-21T02:50:16.626Z,88.16
2022-11-21T02:55:19.562Z,88.39
2022-11-21T03:00:24.756Z,89.37
2022-11-21T03:05:27.865Z,89.18
2022-11-21T03:10:30.772Z,88.97
2022-11-21T03:15:36.450Z,89.01
2022-11-21T03:20:39.686Z,90.57
2022-11-21T03:25:42.511Z,90.78
2022-11-21T03:30:46.738Z,90.81
2022-11-21T03:35:49.622Z,91.16
2022-11-21T03:40:52.535Z,91.83
2022-11-21T03:45:57.465Z,91.91
2022-11-21T03:51:00.449Z,92.15
2022-11-21T03:56:03.329Z,92.33
2022-11-21T04:01:07.675Z,92.26
2022-11-21T04:06:10.783Z,92.80
2022-11-21T04:11:14.173Z,92.57
2022-11-21T04:16:18.499Z,94.02
2022-11-21T04:21:21.388Z,93.56
2022-11-21T04:26:24.338Z,93.53
2022-11-21T04:31:28.555Z,93.46
2022-11-21T04:36:31.552Z,94.56
2022-11-21T04:41:34.455Z,94.82
2022-11-21T04:46:38.717Z,95.16
2022-11-21T04:51:41.633Z,94.71
2022-11-21T04:56:44.502Z,95.48
2022-11-21T05:01:49.733Z,95.04
2022-11-21T05:06:52.782Z,95.09
2022-11-21T05:12:13.228Z,95.32
2022-11-21T05:17:17.670Z,94.33
2022-11-21T05:22:20.567Z,94.11
2022-11-21T05:27:23.473Z,95.31
2022-11-21T05:32:27.705Z,95.60
2022-11-21T05:37:30.588Z,95.10
2022-11-21T05:42:51.123Z,95.04
2022-11-21T05:47:55.372Z,96.37
2022-11-21T05:53:02.450Z,97.38
2022-11-21T05:58:05.311Z,96.83
2022-11-21T06:03:30.637Z,96.92
2022-11-21T06:08:35.765Z,96.21
2022-11-21T06:13:38.981Z,96.05
2022-11-21T06:18:45.124Z,95.17
2022-11-21T06:23:49.233Z,95.10
2022-11-21T06:28:52.554Z,95.79
2022-11-21T06:33:57.993Z,95.53
2022-11-21T06:39:00.930Z,96.93
2022-11-21T06:44:03.871Z,96.83
2022-11-21T06:49:08.099Z,96.83
2022-11-21T06:54:16.273Z,95.09
2022-11-21T06:59:19.812Z,94.70
2022-11-21T07:04:24.179Z,93.90
2022-11-21T07:09:34.347Z,93.74
2022-11-21T07:14:37.338Z,93.78
2022-11-21T07:19:41.834Z,93.65
2022-11-21T07:24:44.773Z,94.99
2022-11-21T07:29:47.636Z,94.93
2022-11-21T07:34:51.926Z,93.38
2022-11-21T07:39:54.850Z,92.10
2022-11-21T07:44:57.747Z,93.14
2022-11-21T07:50:02.010Z,92.65
2022-11-21T07:55:05.882Z,91.44
2022-11-21T08:00:10.306Z,92.43
2022-11-21T08:05:14.711Z,91.65
2022-11-21T08:10:18.538Z,92.25
2022-11-21T08:15:21.457Z,92.30
2022-11-21T08:20:25.980Z,92.20
2022-11-21T08:25:28.985Z,92.72
2022-11-21T08:30:32.243Z,91.34
2022-11-21T08:35:38.347Z,91.51
2022-11-21T08:40:41.530Z,92.48
2022-11-21T08:45:44.971Z,92.91
2022-11-21T08:50:49.258Z,92.33
2022-11-21T08:55:52.094Z,91.75
2022-11-21T09:00:55.027Z,92.17
2022-11-21T09:05:59.852Z,92.38
2022-11-21T09:11:05.461Z,91.57
2022-11-21T09:16:26.034Z,90.03
2022-11-21T09:21:30.247Z,90.34
2022-11-21T09:26:33.106Z,89.53
2022-11-21T09:31:36.066Z,91.02
2022-11-21T09:36:40.306Z,89.30
2022-11-21T09:41:59.524Z,87.88
2022-11-21T09:47:12.186Z,88.20
2022-11-21T09:52:22.215Z,87.70
2022-11-21T09:57:32.062Z,87.77
2022-11-21T10:02:37.607Z,87.47
2022-11-21T10:07:43.535Z,86.44
2022-11-21T10:13:02.825Z,86.02
2022-11-21T10:18:24.970Z,85.90
2022-11-21T10:23:48.675Z,88.32
2022-11-21T10:28:56.568Z,89.14
2022-11-21T10:34:01.598Z,88.71
2022-11-21T10:39:13.821Z,86.75
2022-11-21T10:44:43.939Z,86.56
2022-11-21T10:49:48.343Z,87.71
2022-11-21T10:55:06.974Z,89.55
2022-11-21T11:00:24.921Z,90.91
2022-11-21T11:05:29.172Z,89.51
2022-11-21T11:10:35.234Z,88.57
2022-11-21T11:15:52.889Z,89.62
2022-11-21T11:21:13.123Z,90.11
2022-11-21T11:26:28.889Z,90.59
2022-11-21T11:31:41.432Z,91.21
2022-11-21T11:37:02.040Z,90.92
2022-11-21T11:42:53.528Z,89.39
2022-11-21T11:47:59.152Z,90.48
2022-11-21T11:53:08.683Z,89.61
2022-11-21T11:58:22.817Z,88.51
2022-11-21T12:03:32.918Z,88.15
2022-11-21T12:08:42.897Z,88.55
2022-11-21T12:13:49.494Z,88.18
2022-11-21T12:18:57.433Z,87.51
2022-11-21T12:24:04.209Z,87.52
2022-11-21T12:29:37.089Z,89.22
2022-11-21T12:35:06.825Z,91.03
2022-11-21T12:40:23.946Z,90.68
2022-11-21T12:45:32.653Z,90.26
2022-11-21T12:51:07.847Z,89.58
2022-11-21T12:56:20.628Z,88.30
2022-11-21T13:01:35.495Z,89.25
2022-11-21T13:06:41.719Z,87.92
2022-11-21T13:12:01.586Z,88.30
2022-11-21T13:17:15.457Z,87.85
2022-11-21T13:22:53.339Z,87.11
2022-11-21T13:27:56.264Z,86.86
2022-11-21T13:33:00.653Z,87.59
2022-11-21T13:38:04.764Z,87.51
2022-11-21T13:43:33.363Z,88.08
2022-11-21T13:49:06.593Z,88.89
2022-11-21T13:54:31.528Z,88.60
2022-11-21T13:59:55.668Z,87.95
2022-11-21T14:05:15.092Z,87.08
2022-11-21T14:10:33.930Z,87.13
2022-11-21T14:15:47.278Z,87.19
2022-11-21T14:20:56.884Z,86.87
2022-11-21T14:26:03.695Z,88.06
2022-11-21T14:31:08.296Z,87.80
2022-11-21T14:36:15.848Z,88.94
2022-11-21T14:41:32.749Z,88.14
2022-11-21T14:46:37.644Z,88.94
2022-11-21T14:51:42.529Z,88.62
2022-11-21T14:56:49.313Z,88.99
2022-11-21T15:02:01.753Z,89.13
2022-11-21T15:07:06.219Z,88.62
2022-11-21T15:12:11.666Z,88.67
2022-11-21T15:17:20.500Z,89.19
2022-11-21T15:22:30.804Z,89.75
2022-11-21T15:27:35.222Z,88.97
2022-11-21T15:33:09.454Z,89.58
2022-11-21T15:38:34.039Z,90.35
2022-11-21T15:43:40.762Z,89.55
2022-11-21T15:48:47.096Z,89.42
2022-11-21T15:53:52.337Z,89.42
2022-11-21T15:58:55.323Z,88.98
2022-11-21T16:04:00.154Z,89.28
2022-11-21T16:09:05.181Z,88.80
2022-11-21T16:14:10.034Z,88.99
2022-11-21T16:19:14.135Z,89.35
2022-11-21T16:24:18.892Z,88.94
2022-11-21T16:29:22.092Z,89.71
2022-11-21T16:34:25.103Z,90.74
2022-11-21T16:39:29.694Z,90.19
2022-11-21T16:44:32.931Z,88.96
2022-11-21T16:49:35.840Z,89.96
2022-11-21T16:54:40.705Z,89.21
2022-11-21T16:59:43.569Z,88.95
2022-11-21T17:04:47.055Z,88.63
2022-11-21T17:09:52.421Z,88.04
2022-11-21T17:14:55.351Z,88.57
2022-11-21T17:19:58.355Z,88.21
2022-11-21T17:25:03.289Z,87.89
2022-11-21T17:30:07.234Z,87.80
2022-11-21T17:35:11.263Z,87.78
2022-11-21T17:40:15.723Z,90.48
2022-11-21T17:45:18.658Z,89.60
2022-11-21T17:50:22.166Z,88.50
2022-11-21T17:55:26.453Z,88.49
2022-11-21T18:00:29.441Z,87.42
2022-11-21T18:05:32.318Z,87.06
2022-11-21T18:10:43.231Z,87.20
2022-11-21T18:15:48.049Z,86.01
2022-11-21T18:20:51.461Z,86.42
2022-11-21T18:25:55.706Z,87.02
2022-11-21T18:31:06.326Z,86.89
2022-11-21T18:36:10.813Z,87.01
2022-11-21T18:41:17.133Z,86.95
2022-11-21T18:46:21.102Z,86.34
2022-11-21T18:51:25.928Z,86.81
2022-11-21T18:56:31.096Z,87.00
2022-11-21T19:01:35.459Z,87.18
2022-11-21T19:06:38.536Z,87.14
2022-11-21T19:11:42.795Z,86.84
2022-11-21T19:16:45.643Z,86.31
2022-11-21T19:21:48.848Z,86.77
2022-11-21T19:26:53.595Z,87.93
2022-11-21T19:31:56.726Z,87.67
2022-11-21T19:36:59.606Z,86.95
2022-11-21T19:42:03.876Z,86.63
2022-11-21T19:47:06.948Z,86.89
2022-11-21T19:52:10.009Z,86.64
2022-11-21T19:57:14.342Z,87.38
2022-11-21T20:02:19.174Z,86.99
2022-11-21T20:07:22.313Z,86.69
2022-11-21T20:12:26.647Z,86.46
2022-11-21T20:17:29.907Z,86.66
2022-11-21T20:22:32.771Z,86.27
2022-11-21T20:27:37.037Z,86.68
2022-11-21T20:32:41.027Z,87.26
2022-11-21T20:37:43.993Z,89.72
2022-11-21T20:42:48.262Z,88.06
2022-11-21T20:47:51.120Z,87.68
2022-11-21T20:53:50.175Z,88.94
2022-11-21T20:58:18.316Z,87.74
2022-11-21T21:03:21.376Z,88.83
2022-11-21T21:08:24.956Z,89.20
2022-11-21T21:13:29.374Z,90.00
2022-11-21T21:18:33.762Z,90.53
2022-11-21T21:23:37.818Z,89.96
2022-11-21T21:28:42.817Z,90.02
2022-11-21T21:33:46.173Z,90.69
2022-11-21T21:38:51.754Z,90.60
2022-11-21T21:43:57.236Z,91.02
2022-11-21T21:49:00.227Z,90.14
2022-11-21T21:54:03.183Z,89.82
2022-11-21T21:59:07.491Z,90.30
2022-11-21T22:04:12.498Z,90.60
2022-11-21T22:09:15.499Z,91.73
2022-11-21T22:14:19.813Z,92.10
2022-11-21T22:19:23.898Z,92.07
2022-11-21T22:24:27.577Z,91.86
2022-11-21T22:29:32.254Z,91.70
2022-11-21T22:34:35.753Z,91.91
2022-11-21T22:39:38.688Z,91.67
2022-11-21T22:44:42.956Z,92.03
2022-11-21T22:49:45.849Z,91.85
2022-11-21T22:54:48.798Z,91.75
2022-11-21T22:59:53.391Z,92.01
2022-11-21T23:04:56.287Z,92.11
2022-11-21T23:09:59.810Z,91.72
2022-11-21T23:15:04.079Z,92.12
2022-11-21T23:20:07.768Z,92.83
2022-11-21T23:25:10.832Z,93.13
2022-11-21T23:30:17.120Z,92.75
2022-11-21T23:35:20.048Z,93.73
2022-11-21T23:40:24.033Z,94.03
2022-11-21T23:45:28.345Z,93.55
2022-11-21T23:50:31.230Z,92.90
2022-11-21T23:55:34.086Z,92.86
